sensor_id;sensor_type;location;lat;lon;timestamp;P1;durP1;ratioP1;P2;durP2;ratioP2
61911;SDS011;49973;52.084;5.412;2023-02-19T00:01:51;28.97;;;9.03;;
61911;SDS011;49973;52.084;5.412;2023-02-19T00:04:20;24.77;;;10.00;;
61911;SDS011;49973;52.084;5.412;2023-02-19T00:06:50;19.47;;;9.13;;
61911;SDS011;49973;52.084;5.412;2023-02-19T00:09:19;19.67;;;8.27;;
61911;SDS011;49973;52.084;5.412;2023-02-19T00:11:48;25.73;;;8.73;;
61911;SDS011;49973;52.084;5.412;2023-02-19T00:14:17;31.37;;;9.20;;
61911;SDS011;49973;52.084;5.412;2023-02-19T00:16:47;24.20;;;9.20;;
61911;SDS011;49973;52.084;5.412;2023-02-19T00:19:17;26.70;;;8.13;;
61911;SDS011;49973;52.084;5.412;2023-02-19T00:21:46;19.40;;;8.20;;
61911;SDS011;49973;52.084;5.412;2023-02-19T00:24:18;32.67;;;11.03;;
61911;SDS011;49973;52.084;5.412;2023-02-19T00:26:48;24.83;;;9.37;;
61911;SDS011;49973;52.084;5.412;2023-02-19T00:29:17;30.30;;;9.63;;
61911;SDS011;49973;52.084;5.412;2023-02-19T00:31:48;17.77;;;7.90;;
61911;SDS011;49973;52.084;5.412;2023-02-19T00:34:17;17.73;;;7.53;;
61911;SDS011;49973;52.084;5.412;2023-02-19T00:36:46;20.40;;;8.00;;
61911;SDS011;49973;52.084;5.412;2023-02-19T00:39:15;28.67;;;8.80;;
61911;SDS011;49973;52.084;5.412;2023-02-19T00:41:45;19.33;;;8.20;;
61911;SDS011;49973;52.084;5.412;2023-02-19T00:44:14;21.20;;;8.30;;
61911;SDS011;49973;52.084;5.412;2023-02-19T00:46:44;25.80;;;9.10;;
61911;SDS011;49973;52.084;5.412;2023-02-19T00:49:15;17.43;;;8.13;;
61911;SDS011;49973;52.084;5.412;2023-02-19T00:51:45;18.40;;;7.67;;
61911;SDS011;49973;52.084;5.412;2023-02-19T00:54:14;35.97;;;10.10;;
61911;SDS011;49973;52.084;5.412;2023-02-19T00:56:43;25.77;;;9.10;;
61911;SDS011;49973;52.084;5.412;2023-02-19T00:59:13;44.47;;;10.40;;
61911;SDS011;49973;52.084;5.412;2023-02-19T01:01:42;23.30;;;9.50;;
61911;SDS011;49973;52.084;5.412;2023-02-19T01:04:11;26.03;;;9.23;;
61911;SDS011;49973;52.084;5.412;2023-02-19T01:06:42;29.67;;;9.53;;
61911;SDS011;49973;52.084;5.412;2023-02-19T01:09:10;15.83;;;8.23;;
61911;SDS011;49973;52.084;5.412;2023-02-19T01:11:40;24.63;;;10.53;;
61911;SDS011;49973;52.084;5.412;2023-02-19T01:14:08;28.83;;;8.97;;
61911;SDS011;49973;52.084;5.412;2023-02-19T01:16:39;21.97;;;8.50;;
61911;SDS011;49973;52.084;5.412;2023-02-19T01:19:07;21.83;;;8.67;;
61911;SDS011;49973;52.084;5.412;2023-02-19T01:21:36;21.17;;;9.80;;
61911;SDS011;49973;52.084;5.412;2023-02-19T01:24:04;21.67;;;8.20;;
61911;SDS011;49973;52.084;5.412;2023-02-19T01:26:33;28.93;;;8.80;;
61911;SDS011;49973;52.084;5.412;2023-02-19T01:29:02;23.53;;;7.93;;
61911;SDS011;49973;52.084;5.412;2023-02-19T01:31:31;24.20;;;7.50;;
61911;SDS011;49973;52.084;5.412;2023-02-19T01:34:02;20.53;;;7.77;;
61911;SDS011;49973;52.084;5.412;2023-02-19T01:36:32;22.87;;;6.53;;
61911;SDS011;49973;52.084;5.412;2023-02-19T01:39:03;12.07;;;6.07;;
61911;SDS011;49973;52.084;5.412;2023-02-19T01:41:34;15.60;;;6.07;;
61911;SDS011;49973;52.084;5.412;2023-02-19T01:44:05;15.97;;;6.57;;
61911;SDS011;49973;52.084;5.412;2023-02-19T01:46:55;14.07;;;6.50;;
61911;SDS011;49973;52.084;5.412;2023-02-19T01:49:26;15.80;;;6.20;;
61911;SDS011;49973;52.084;5.412;2023-02-19T01:51:59;18.73;;;6.00;;
61911;SDS011;49973;52.084;5.412;2023-02-19T01:54:31;15.17;;;6.17;;
61911;SDS011;49973;52.084;5.412;2023-02-19T01:57:03;11.17;;;6.33;;
61911;SDS011;49973;52.084;5.412;2023-02-19T01:59:34;15.87;;;6.27;;
61911;SDS011;49973;52.084;5.412;2023-02-19T02:02:04;10.60;;;6.10;;
61911;SDS011;49973;52.084;5.412;2023-02-19T02:04:34;16.67;;;5.20;;
61911;SDS011;49973;52.084;5.412;2023-02-19T02:07:03;16.70;;;5.90;;
61911;SDS011;49973;52.084;5.412;2023-02-19T02:09:54;8.87;;;4.93;;
61911;SDS011;49973;52.084;5.412;2023-02-19T02:12:40;29.43;;;6.70;;
61911;SDS011;49973;52.084;5.412;2023-02-19T02:15:09;15.40;;;5.37;;
61911;SDS011;49973;52.084;5.412;2023-02-19T02:17:40;15.93;;;4.73;;
61911;SDS011;49973;52.084;5.412;2023-02-19T02:20:29;12.50;;;5.10;;
61911;SDS011;49973;52.084;5.412;2023-02-19T02:23:06;17.23;;;3.77;;
61911;SDS011;49973;52.084;5.412;2023-02-19T02:25:47;12.47;;;4.20;;
61911;SDS011;49973;52.084;5.412;2023-02-19T02:28:35;13.10;;;4.03;;
61911;SDS011;49973;52.084;5.412;2023-02-19T02:31:31;13.73;;;4.17;;
61911;SDS011;49973;52.084;5.412;2023-02-19T02:34:03;9.70;;;3.20;;
61911;SDS011;49973;52.084;5.412;2023-02-19T02:36:34;18.00;;;3.97;;
61911;SDS011;49973;52.084;5.412;2023-02-19T02:39:05;10.30;;;3.40;;
61911;SDS011;49973;52.084;5.412;2023-02-19T02:41:39;15.77;;;4.10;;
61911;SDS011;49973;52.084;5.412;2023-02-19T02:44:12;12.27;;;3.83;;
61911;SDS011;49973;52.084;5.412;2023-02-19T02:46:42;14.67;;;3.53;;
61911;SDS011;49973;52.084;5.412;2023-02-19T02:49:14;11.07;;;3.40;;
61911;SDS011;49973;52.084;5.412;2023-02-19T02:51:48;5.07;;;2.93;;
61911;SDS011;49973;52.084;5.412;2023-02-19T02:54:25;15.03;;;3.50;;
61911;SDS011;49973;52.084;5.412;2023-02-19T02:57:16;10.80;;;3.63;;
61911;SDS011;49973;52.084;5.412;2023-02-19T02:59:50;9.83;;;2.90;;
61911;SDS011;49973;52.084;5.412;2023-02-19T03:02:22;19.20;;;4.37;;
61911;SDS011;49973;52.084;5.412;2023-02-19T03:04:56;7.33;;;3.33;;
61911;SDS011;49973;52.084;5.412;2023-02-19T03:07:48;19.17;;;3.23;;
61911;SDS011;49973;52.084;5.412;2023-02-19T03:10:24;15.97;;;3.77;;
61911;SDS011;49973;52.084;5.412;2023-02-19T03:12:56;8.97;;;3.10;;
61911;SDS011;49973;52.084;5.412;2023-02-19T03:15:46;6.00;;;4.03;;
61911;SDS011;49973;52.084;5.412;2023-02-19T03:18:44;15.77;;;3.93;;
61911;SDS011;49973;52.084;5.412;2023-02-19T03:21:30;13.60;;;4.43;;
61911;SDS011;49973;52.084;5.412;2023-02-19T03:24:06;18.77;;;4.23;;
61911;SDS011;49973;52.084;5.412;2023-02-19T03:26:54;11.47;;;4.57;;
61911;SDS011;49973;52.084;5.412;2023-02-19T03:29:30;9.40;;;4.37;;
61911;SDS011;49973;52.084;5.412;2023-02-19T03:32:05;13.47;;;4.70;;
61911;SDS011;49973;52.084;5.412;2023-02-19T03:34:40;16.90;;;3.77;;
61911;SDS011;49973;52.084;5.412;2023-02-19T03:37:14;12.93;;;3.53;;
61911;SDS011;49973;52.084;5.412;2023-02-19T03:39:47;8.33;;;4.23;;
61911;SDS011;49973;52.084;5.412;2023-02-19T03:42:19;11.17;;;5.00;;
61911;SDS011;49973;52.084;5.412;2023-02-19T03:44:59;11.77;;;4.00;;
61911;SDS011;49973;52.084;5.412;2023-02-19T03:47:39;8.07;;;4.27;;
61911;SDS011;49973;52.084;5.412;2023-02-19T03:50:19;14.87;;;4.40;;
61911;SDS011;49973;52.084;5.412;2023-02-19T03:52:53;13.40;;;3.87;;
61911;SDS011;49973;52.084;5.412;2023-02-19T03:55:34;11.17;;;3.87;;
61911;SDS011;49973;52.084;5.412;2023-02-19T03:58:11;11.57;;;4.00;;
61911;SDS011;49973;52.084;5.412;2023-02-19T04:00:47;10.53;;;3.87;;
61911;SDS011;49973;52.084;5.412;2023-02-19T04:03:19;17.70;;;4.87;;
61911;SDS011;49973;52.084;5.412;2023-02-19T04:05:57;16.10;;;4.73;;
61911;SDS011;49973;52.084;5.412;2023-02-19T04:08:29;13.13;;;3.83;;
61911;SDS011;49973;52.084;5.412;2023-02-19T04:11:04;10.77;;;4.07;;
61911;SDS011;49973;52.084;5.412;2023-02-19T04:13:36;11.03;;;3.43;;
61911;SDS011;49973;52.084;5.412;2023-02-19T04:16:12;9.07;;;3.93;;
61911;SDS011;49973;52.084;5.412;2023-02-19T04:18:45;8.30;;;4.37;;
61911;SDS011;49973;52.084;5.412;2023-02-19T04:21:18;15.33;;;4.43;;
61911;SDS011;49973;52.084;5.412;2023-02-19T04:23:49;14.27;;;4.37;;
61911;SDS011;49973;52.084;5.412;2023-02-19T04:26:19;20.60;;;5.00;;
61911;SDS011;49973;52.084;5.412;2023-02-19T04:28:49;8.40;;;3.83;;
61911;SDS011;49973;52.084;5.412;2023-02-19T04:31:17;15.90;;;4.10;;
61911;SDS011;49973;52.084;5.412;2023-02-19T04:33:46;9.47;;;3.87;;
61911;SDS011;49973;52.084;5.412;2023-02-19T04:36:15;11.33;;;3.87;;
61911;SDS011;49973;52.084;5.412;2023-02-19T04:38:45;15.37;;;4.20;;
61911;SDS011;49973;52.084;5.412;2023-02-19T04:41:13;12.70;;;3.70;;
61911;SDS011;49973;52.084;5.412;2023-02-19T04:43:42;9.67;;;3.80;;
61911;SDS011;49973;52.084;5.412;2023-02-19T04:46:10;14.90;;;4.73;;
61911;SDS011;49973;52.084;5.412;2023-02-19T04:48:39;16.10;;;4.10;;
61911;SDS011;49973;52.084;5.412;2023-02-19T04:51:09;12.43;;;3.53;;
61911;SDS011;49973;52.084;5.412;2023-02-19T04:53:38;13.03;;;3.40;;
61911;SDS011;49973;52.084;5.412;2023-02-19T04:56:08;8.20;;;3.17;;
61911;SDS011;49973;52.084;5.412;2023-02-19T04:58:38;13.00;;;4.00;;
61911;SDS011;49973;52.084;5.412;2023-02-19T05:01:08;10.83;;;3.53;;
61911;SDS011;49973;52.084;5.412;2023-02-19T05:03:37;21.93;;;5.07;;
61911;SDS011;49973;52.084;5.412;2023-02-19T05:06:07;4.13;;;3.13;;
61911;SDS011;49973;52.084;5.412;2023-02-19T05:08:38;7.80;;;3.50;;
61911;SDS011;49973;52.084;5.412;2023-02-19T05:11:09;12.43;;;4.00;;
61911;SDS011;49973;52.084;5.412;2023-02-19T05:13:39;10.30;;;4.17;;
61911;SDS011;49973;52.084;5.412;2023-02-19T05:16:08;9.37;;;3.57;;
61911;SDS011;49973;52.084;5.412;2023-02-19T05:18:39;16.07;;;4.07;;
61911;SDS011;49973;52.084;5.412;2023-02-19T05:21:08;11.20;;;4.10;;
61911;SDS011;49973;52.084;5.412;2023-02-19T05:23:38;9.33;;;4.20;;
61911;SDS011;49973;52.084;5.412;2023-02-19T05:26:10;10.97;;;3.67;;
61911;SDS011;49973;52.084;5.412;2023-02-19T05:28:42;19.17;;;4.33;;
61911;SDS011;49973;52.084;5.412;2023-02-19T05:31:11;18.43;;;3.90;;
61911;SDS011;49973;52.084;5.412;2023-02-19T05:33:40;19.43;;;4.80;;
61911;SDS011;49973;52.084;5.412;2023-02-19T05:36:10;9.23;;;3.53;;
61911;SDS011;49973;52.084;5.412;2023-02-19T05:38:40;12.90;;;4.20;;
61911;SDS011;49973;52.084;5.412;2023-02-19T05:41:11;12.40;;;4.67;;
61911;SDS011;49973;52.084;5.412;2023-02-19T05:43:41;13.70;;;4.27;;
61911;SDS011;49973;52.084;5.412;2023-02-19T05:46:12;8.43;;;4.07;;
61911;SDS011;49973;52.084;5.412;2023-02-19T05:48:42;16.57;;;3.90;;
61911;SDS011;49973;52.084;5.412;2023-02-19T05:51:11;15.10;;;4.00;;
61911;SDS011;49973;52.084;5.412;2023-02-19T05:53:41;14.60;;;3.53;;
61911;SDS011;49973;52.084;5.412;2023-02-19T05:56:22;13.30;;;3.47;;
61911;SDS011;49973;52.084;5.412;2023-02-19T05:58:55;13.77;;;3.97;;
61911;SDS011;49973;52.084;5.412;2023-02-19T06:01:24;6.23;;;3.13;;
61911;SDS011;49973;52.084;5.412;2023-02-19T06:03:55;12.70;;;3.53;;
61911;SDS011;49973;52.084;5.412;2023-02-19T06:06:24;11.93;;;3.20;;
61911;SDS011;49973;52.084;5.412;2023-02-19T06:08:53;15.97;;;3.23;;
61911;SDS011;49973;52.084;5.412;2023-02-19T06:11:23;12.17;;;3.43;;
61911;SDS011;49973;52.084;5.412;2023-02-19T06:13:52;15.77;;;3.27;;
61911;SDS011;49973;52.084;5.412;2023-02-19T06:16:20;10.70;;;3.40;;
61911;SDS011;49973;52.084;5.412;2023-02-19T06:18:49;14.13;;;3.50;;
61911;SDS011;49973;52.084;5.412;2023-02-19T06:21:18;10.30;;;3.30;;
61911;SDS011;49973;52.084;5.412;2023-02-19T06:23:46;8.40;;;3.50;;
61911;SDS011;49973;52.084;5.412;2023-02-19T06:26:16;15.67;;;3.40;;
61911;SDS011;49973;52.084;5.412;2023-02-19T06:28:48;10.17;;;3.43;;
61911;SDS011;49973;52.084;5.412;2023-02-19T06:31:18;11.50;;;3.67;;
61911;SDS011;49973;52.084;5.412;2023-02-19T06:33:48;13.30;;;4.00;;
61911;SDS011;49973;52.084;5.412;2023-02-19T06:36:18;14.37;;;3.67;;
61911;SDS011;49973;52.084;5.412;2023-02-19T06:38:47;7.70;;;3.60;;
61911;SDS011;49973;52.084;5.412;2023-02-19T06:41:16;13.63;;;3.50;;
61911;SDS011;49973;52.084;5.412;2023-02-19T06:43:45;9.97;;;3.93;;
61911;SDS011;49973;52.084;5.412;2023-02-19T06:46:15;9.70;;;3.73;;
61911;SDS011;49973;52.084;5.412;2023-02-19T06:48:43;6.87;;;3.53;;
61911;SDS011;49973;52.084;5.412;2023-02-19T06:51:13;6.83;;;3.33;;
61911;SDS011;49973;52.084;5.412;2023-02-19T06:53:44;10.10;;;4.03;;
61911;SDS011;49973;52.084;5.412;2023-02-19T06:56:23;11.80;;;3.27;;
61911;SDS011;49973;52.084;5.412;2023-02-19T06:58:53;10.57;;;3.80;;
61911;SDS011;49973;52.084;5.412;2023-02-19T07:01:24;6.23;;;4.07;;
61911;SDS011;49973;52.084;5.412;2023-02-19T07:03:53;13.37;;;4.37;;
61911;SDS011;49973;52.084;5.412;2023-02-19T07:06:22;14.63;;;3.93;;
61911;SDS011;49973;52.084;5.412;2023-02-19T07:08:51;12.80;;;3.97;;
61911;SDS011;49973;52.084;5.412;2023-02-19T07:11:22;13.13;;;5.37;;
61911;SDS011;49973;52.084;5.412;2023-02-19T07:13:53;18.20;;;5.60;;
61911;SDS011;49973;52.084;5.412;2023-02-19T07:16:22;21.70;;;5.30;;
61911;SDS011;49973;52.084;5.412;2023-02-19T07:18:54;17.43;;;5.60;;
61911;SDS011;49973;52.084;5.412;2023-02-19T07:21:23;19.87;;;5.23;;
61911;SDS011;49973;52.084;5.412;2023-02-19T07:23:52;12.70;;;5.23;;
61911;SDS011;49973;52.084;5.412;2023-02-19T07:26:21;14.63;;;4.60;;
61911;SDS011;49973;52.084;5.412;2023-02-19T07:28:50;11.13;;;4.97;;
61911;SDS011;49973;52.084;5.412;2023-02-19T07:31:20;19.40;;;5.47;;
61911;SDS011;49973;52.084;5.412;2023-02-19T07:33:51;14.40;;;4.83;;
61911;SDS011;49973;52.084;5.412;2023-02-19T07:36:21;16.97;;;5.40;;
61911;SDS011;49973;52.084;5.412;2023-02-19T07:38:54;19.10;;;5.20;;
61911;SDS011;49973;52.084;5.412;2023-02-19T07:41:23;13.70;;;4.73;;
61911;SDS011;49973;52.084;5.412;2023-02-19T07:43:55;22.97;;;7.13;;
61911;SDS011;49973;52.084;5.412;2023-02-19T07:46:24;14.40;;;5.00;;
61911;SDS011;49973;52.084;5.412;2023-02-19T07:48:54;24.13;;;6.40;;
61911;SDS011;49973;52.084;5.412;2023-02-19T07:51:23;18.80;;;6.43;;
61911;SDS011;49973;52.084;5.412;2023-02-19T07:53:51;13.10;;;5.63;;
61911;SDS011;49973;52.084;5.412;2023-02-19T07:56:20;21.07;;;5.73;;
61911;SDS011;49973;52.084;5.412;2023-02-19T07:58:48;15.23;;;5.47;;
61911;SDS011;49973;52.084;5.412;2023-02-19T08:01:17;14.50;;;4.87;;
61911;SDS011;49973;52.084;5.412;2023-02-19T08:04:11;11.77;;;4.77;;
61911;SDS011;49973;52.084;5.412;2023-02-19T08:06:39;13.07;;;6.17;;
61911;SDS011;49973;52.084;5.412;2023-02-19T08:09:08;10.40;;;5.63;;
61911;SDS011;49973;52.084;5.412;2023-02-19T08:11:37;16.10;;;6.47;;
61911;SDS011;49973;52.084;5.412;2023-02-19T08:14:23;12.60;;;5.57;;
61911;SDS011;49973;52.084;5.412;2023-02-19T08:16:52;18.17;;;5.80;;
61911;SDS011;49973;52.084;5.412;2023-02-19T08:19:22;19.17;;;5.73;;
61911;SDS011;49973;52.084;5.412;2023-02-19T08:21:51;12.63;;;6.10;;
61911;SDS011;49973;52.084;5.412;2023-02-19T08:24:20;11.03;;;5.80;;
61911;SDS011;49973;52.084;5.412;2023-02-19T08:26:48;14.80;;;6.30;;
61911;SDS011;49973;52.084;5.412;2023-02-19T08:29:17;21.10;;;6.03;;
61911;SDS011;49973;52.084;5.412;2023-02-19T08:31:46;17.43;;;6.23;;
61911;SDS011;49973;52.084;5.412;2023-02-19T08:34:14;12.67;;;5.40;;
61911;SDS011;49973;52.084;5.412;2023-02-19T08:36:44;14.30;;;5.50;;
61911;SDS011;49973;52.084;5.412;2023-02-19T08:39:13;16.10;;;6.07;;
61911;SDS011;49973;52.084;5.412;2023-02-19T08:41:42;14.30;;;5.60;;
61911;SDS011;49973;52.084;5.412;2023-02-19T08:44:10;17.70;;;5.57;;
61911;SDS011;49973;52.084;5.412;2023-02-19T08:46:39;14.97;;;5.53;;
61911;SDS011;49973;52.084;5.412;2023-02-19T08:49:07;12.43;;;5.43;;
61911;SDS011;49973;52.084;5.412;2023-02-19T08:51:36;17.50;;;4.87;;
61911;SDS011;49973;52.084;5.412;2023-02-19T08:54:05;10.27;;;5.13;;
61911;SDS011;49973;52.084;5.412;2023-02-19T08:56:34;12.60;;;4.60;;
61911;SDS011;49973;52.084;5.412;2023-02-19T08:59:02;17.50;;;5.90;;
61911;SDS011;49973;52.084;5.412;2023-02-19T09:01:31;12.20;;;6.43;;
61911;SDS011;49973;52.084;5.412;2023-02-19T09:04:00;14.70;;;5.63;;
61911;SDS011;49973;52.084;5.412;2023-02-19T09:06:28;14.40;;;5.30;;
61911;SDS011;49973;52.084;5.412;2023-02-19T09:08:57;19.20;;;6.37;;
61911;SDS011;49973;52.084;5.412;2023-02-19T09:11:27;14.73;;;5.83;;
61911;SDS011;49973;52.084;5.412;2023-02-19T09:13:55;11.73;;;5.70;;
61911;SDS011;49973;52.084;5.412;2023-02-19T09:16:24;10.80;;;5.33;;
61911;SDS011;49973;52.084;5.412;2023-02-19T09:18:53;12.87;;;4.67;;
61911;SDS011;49973;52.084;5.412;2023-02-19T09:21:21;13.43;;;4.50;;
61911;SDS011;49973;52.084;5.412;2023-02-19T09:23:50;13.27;;;5.53;;
61911;SDS011;49973;52.084;5.412;2023-02-19T09:26:18;11.50;;;4.33;;
61911;SDS011;49973;52.084;5.412;2023-02-19T09:28:48;11.43;;;4.20;;
61911;SDS011;49973;52.084;5.412;2023-02-19T09:31:17;16.33;;;4.57;;
61911;SDS011;49973;52.084;5.412;2023-02-19T09:33:46;14.77;;;3.93;;
61911;SDS011;49973;52.084;5.412;2023-02-19T09:36:15;14.93;;;4.43;;
61911;SDS011;49973;52.084;5.412;2023-02-19T09:38:45;12.60;;;3.67;;
61911;SDS011;49973;52.084;5.412;2023-02-19T09:41:15;8.13;;;4.23;;
61911;SDS011;49973;52.084;5.412;2023-02-19T09:43:50;13.57;;;4.97;;
61911;SDS011;49973;52.084;5.412;2023-02-19T09:46:23;14.37;;;3.70;;
61911;SDS011;49973;52.084;5.412;2023-02-19T09:48:57;11.00;;;3.53;;
61911;SDS011;49973;52.084;5.412;2023-02-19T09:51:32;8.83;;;3.50;;
61911;SDS011;49973;52.084;5.412;2023-02-19T09:54:03;14.70;;;2.90;;
61911;SDS011;49973;52.084;5.412;2023-02-19T09:56:37;7.83;;;2.73;;
61911;SDS011;49973;52.084;5.412;2023-02-19T09:59:11;8.97;;;3.03;;
61911;SDS011;49973;52.084;5.412;2023-02-19T10:01:46;14.17;;;3.13;;
61911;SDS011;49973;52.084;5.412;2023-02-19T10:04:18;9.10;;;2.90;;
61911;SDS011;49973;52.084;5.412;2023-02-19T10:06:47;9.40;;;3.00;;
61911;SDS011;49973;52.084;5.412;2023-02-19T10:09:18;5.23;;;2.83;;
61911;SDS011;49973;52.084;5.412;2023-02-19T10:11:49;11.73;;;3.07;;
61911;SDS011;49973;52.084;5.412;2023-02-19T10:14:23;11.50;;;3.17;;
61911;SDS011;49973;52.084;5.412;2023-02-19T10:16:56;9.37;;;3.03;;
61911;SDS011;49973;52.084;5.412;2023-02-19T10:19:30;6.20;;;2.63;;
61911;SDS011;49973;52.084;5.412;2023-02-19T10:22:00;5.67;;;3.30;;
61911;SDS011;49973;52.084;5.412;2023-02-19T10:24:30;11.30;;;3.60;;
61911;SDS011;49973;52.084;5.412;2023-02-19T10:26:59;16.33;;;3.47;;
61911;SDS011;49973;52.084;5.412;2023-02-19T10:29:29;10.40;;;3.43;;
61911;SDS011;49973;52.084;5.412;2023-02-19T10:32:11;9.23;;;2.90;;
61911;SDS011;49973;52.084;5.412;2023-02-19T10:34:42;9.97;;;2.80;;
61911;SDS011;49973;52.084;5.412;2023-02-19T10:37:12;13.50;;;3.33;;
61911;SDS011;49973;52.084;5.412;2023-02-19T10:39:43;14.13;;;2.60;;
61911;SDS011;49973;52.084;5.412;2023-02-19T10:42:17;6.77;;;2.17;;
61911;SDS011;49973;52.084;5.412;2023-02-19T10:44:50;4.40;;;1.70;;
61911;SDS011;49973;52.084;5.412;2023-02-19T10:47:21;3.97;;;2.10;;
61911;SDS011;49973;52.084;5.412;2023-02-19T10:49:55;8.30;;;1.77;;
61911;SDS011;49973;52.084;5.412;2023-02-19T10:52:30;2.27;;;1.37;;
61911;SDS011;49973;52.084;5.412;2023-02-19T10:55:12;3.07;;;1.57;;
61911;SDS011;49973;52.084;5.412;2023-02-19T10:57:43;2.93;;;1.20;;
61911;SDS011;49973;52.084;5.412;2023-02-19T11:00:20;2.10;;;1.30;;
61911;SDS011;49973;52.084;5.412;2023-02-19T11:05:48;2.10;;;1.20;;
61911;SDS011;49973;52.084;5.412;2023-02-19T11:08:22;1.13;;;0.90;;
61911;SDS011;49973;52.084;5.412;2023-02-19T11:10:51;1.13;;;1.00;;
61911;SDS011;49973;52.084;5.412;2023-02-19T11:13:22;1.50;;;1.10;;
61911;SDS011;49973;52.084;5.412;2023-02-19T11:15:58;2.17;;;1.30;;
61911;SDS011;49973;52.084;5.412;2023-02-19T11:18:27;4.47;;;1.90;;
61911;SDS011;49973;52.084;5.412;2023-02-19T11:20:58;2.53;;;1.50;;
61911;SDS011;49973;52.084;5.412;2023-02-19T11:23:29;2.80;;;1.60;;
61911;SDS011;49973;52.084;5.412;2023-02-19T11:25:59;5.57;;;1.70;;
61911;SDS011;49973;52.084;5.412;2023-02-19T11:28:32;2.70;;;1.63;;
61911;SDS011;49973;52.084;5.412;2023-02-19T11:31:14;2.17;;;1.37;;
61911;SDS011;49973;52.084;5.412;2023-02-19T11:33:54;3.53;;;1.50;;
61911;SDS011;49973;52.084;5.412;2023-02-19T11:36:25;3.00;;;1.20;;
61911;SDS011;49973;52.084;5.412;2023-02-19T11:38:58;2.43;;;1.50;;
61911;SDS011;49973;52.084;5.412;2023-02-19T11:41:53;2.07;;;1.50;;
61911;SDS011;49973;52.084;5.412;2023-02-19T11:44:42;2.70;;;1.60;;
61911;SDS011;49973;52.084;5.412;2023-02-19T11:47:28;3.10;;;1.40;;
61911;SDS011;49973;52.084;5.412;2023-02-19T11:50:20;2.23;;;1.20;;
61911;SDS011;49973;52.084;5.412;2023-02-19T11:52:56;1.60;;;1.00;;
61911;SDS011;49973;52.084;5.412;2023-02-19T11:55:41;5.17;;;1.20;;
61911;SDS011;49973;52.084;5.412;2023-02-19T12:01:29;2.73;;;1.30;;
61911;SDS011;49973;52.084;5.412;2023-02-19T12:07:22;1.60;;;1.00;;
61911;SDS011;49973;52.084;5.412;2023-02-19T12:10:07;4.03;;;1.03;;
61911;SDS011;49973;52.084;5.412;2023-02-19T12:12:47;1.77;;;1.40;;
61911;SDS011;49973;52.084;5.412;2023-02-19T12:15:29;2.40;;;1.20;;
61911;SDS011;49973;52.084;5.412;2023-02-19T12:21:16;5.77;;;1.10;;
61911;SDS011;49973;52.084;5.412;2023-02-19T12:24:02;3.00;;;1.17;;
61911;SDS011;49973;52.084;5.412;2023-02-19T12:26:49;1.40;;;1.07;;
61911;SDS011;49973;52.084;5.412;2023-02-19T12:29:32;2.30;;;1.30;;
61911;SDS011;49973;52.084;5.412;2023-02-19T12:32:15;1.80;;;1.00;;
61911;SDS011;49973;52.084;5.412;2023-02-19T12:38:15;1.47;;;1.07;;
61911;SDS011;49973;52.084;5.412;2023-02-19T12:41:01;1.60;;;1.10;;
61911;SDS011;49973;52.084;5.412;2023-02-19T12:43:44;3.30;;;1.93;;
61911;SDS011;49973;52.084;5.412;2023-02-19T12:46:20;2.60;;;1.40;;
61911;SDS011;49973;52.084;5.412;2023-02-19T12:48:55;3.13;;;1.40;;
61911;SDS011;49973;52.084;5.412;2023-02-19T12:51:29;1.77;;;1.40;;
61911;SDS011;49973;52.084;5.412;2023-02-19T12:54:05;0.90;;;0.80;;
61911;SDS011;49973;52.084;5.412;2023-02-19T12:56:41;1.77;;;1.33;;
61911;SDS011;49973;52.084;5.412;2023-02-19T12:59:14;1.67;;;1.30;;
61911;SDS011;49973;52.084;5.412;2023-02-19T13:01:49;1.63;;;1.33;;
61911;SDS011;49973;52.084;5.412;2023-02-19T13:04:25;2.00;;;1.17;;
61911;SDS011;49973;52.084;5.412;2023-02-19T13:07:00;5.90;;;1.20;;
61911;SDS011;49973;52.084;5.412;2023-02-19T13:09:35;2.43;;;1.03;;
61911;SDS011;49973;52.084;5.412;2023-02-19T13:12:10;1.53;;;1.43;;
61911;SDS011;49973;52.084;5.412;2023-02-19T13:14:41;3.27;;;1.20;;
61911;SDS011;49973;52.084;5.412;2023-02-19T13:17:16;1.33;;;1.13;;
61911;SDS011;49973;52.084;5.412;2023-02-19T13:19:51;1.60;;;1.33;;
61911;SDS011;49973;52.084;5.412;2023-02-19T13:22:26;1.97;;;1.30;;
61911;SDS011;49973;52.084;5.412;2023-02-19T13:25:20;2.00;;;1.60;;
61911;SDS011;49973;52.084;5.412;2023-02-19T13:30:42;2.20;;;1.37;;
61911;SDS011;49973;52.084;5.412;2023-02-19T13:33:29;1.97;;;1.30;;
61911;SDS011;49973;52.084;5.412;2023-02-19T13:36:13;1.90;;;1.43;;
61911;SDS011;49973;52.084;5.412;2023-02-19T13:38:46;1.53;;;1.13;;
61911;SDS011;49973;52.084;5.412;2023-02-19T13:41:18;2.83;;;1.60;;
61911;SDS011;49973;52.084;5.412;2023-02-19T13:43:53;4.17;;;1.60;;
61911;SDS011;49973;52.084;5.412;2023-02-19T13:46:35;4.93;;;2.40;;
61911;SDS011;49973;52.084;5.412;2023-02-19T14:01:03;2.37;;;1.80;;
61911;SDS011;49973;52.084;5.412;2023-02-19T14:03:43;2.47;;;1.83;;
61911;SDS011;49973;52.084;5.412;2023-02-19T14:06:16;2.60;;;1.37;;
61911;SDS011;49973;52.084;5.412;2023-02-19T14:08:46;2.80;;;1.70;;
61911;SDS011;49973;52.084;5.412;2023-02-19T14:14:37;7.53;;;1.97;;
61911;SDS011;49973;52.084;5.412;2023-02-19T14:17:23;6.37;;;2.37;;
61911;SDS011;49973;52.084;5.412;2023-02-19T14:19:55;1.87;;;1.60;;
61911;SDS011;49973;52.084;5.412;2023-02-19T14:22:46;1.83;;;1.33;;
61911;SDS011;49973;52.084;5.412;2023-02-19T14:25:38;7.03;;;1.73;;
61911;SDS011;49973;52.084;5.412;2023-02-19T14:28:22;3.07;;;1.57;;
61911;SDS011;49973;52.084;5.412;2023-02-19T14:31:01;2.87;;;1.60;;
61911;SDS011;49973;52.084;5.412;2023-02-19T14:33:47;1.83;;;1.30;;
61911;SDS011;49973;52.084;5.412;2023-02-19T14:36:19;7.07;;;2.00;;
61911;SDS011;49973;52.084;5.412;2023-02-19T14:38:57;5.23;;;1.30;;
61911;SDS011;49973;52.084;5.412;2023-02-19T14:41:27;2.07;;;1.63;;
61911;SDS011;49973;52.084;5.412;2023-02-19T14:43:59;1.80;;;1.60;;
61911;SDS011;49973;52.084;5.412;2023-02-19T14:46:31;4.87;;;2.73;;
61911;SDS011;49973;52.084;5.412;2023-02-19T14:49:05;2.30;;;1.97;;
61911;SDS011;49973;52.084;5.412;2023-02-19T14:51:41;4.43;;;1.33;;
61911;SDS011;49973;52.084;5.412;2023-02-19T14:54:13;3.50;;;1.87;;
61911;SDS011;49973;52.084;5.412;2023-02-19T14:56:46;3.93;;;1.70;;
61911;SDS011;49973;52.084;5.412;2023-02-19T14:59:23;5.00;;;2.00;;
61911;SDS011;49973;52.084;5.412;2023-02-19T15:01:55;1.80;;;1.33;;
61911;SDS011;49973;52.084;5.412;2023-02-19T15:04:26;1.43;;;1.10;;
61911;SDS011;49973;52.084;5.412;2023-02-19T15:06:58;1.40;;;1.10;;
61911;SDS011;49973;52.084;5.412;2023-02-19T15:09:30;1.43;;;0.90;;
61911;SDS011;49973;52.084;5.412;2023-02-19T15:12:03;4.47;;;1.30;;
61911;SDS011;49973;52.084;5.412;2023-02-19T15:14:32;3.40;;;1.70;;
61911;SDS011;49973;52.084;5.412;2023-02-19T15:17:03;1.97;;;1.30;;
61911;SDS011;49973;52.084;5.412;2023-02-19T15:19:34;2.80;;;1.67;;
61911;SDS011;49973;52.084;5.412;2023-02-19T15:22:05;1.57;;;1.30;;
61911;SDS011;49973;52.084;5.412;2023-02-19T15:24:42;1.60;;;1.27;;
61911;SDS011;49973;52.084;5.412;2023-02-19T15:27:15;4.60;;;1.50;;
61911;SDS011;49973;52.084;5.412;2023-02-19T15:29:46;1.57;;;1.37;;
61911;SDS011;49973;52.084;5.412;2023-02-19T15:32:21;2.30;;;1.63;;
61911;SDS011;49973;52.084;5.412;2023-02-19T15:34:52;4.83;;;1.40;;
61911;SDS011;49973;52.084;5.412;2023-02-19T15:37:22;2.33;;;1.30;;
61911;SDS011;49973;52.084;5.412;2023-02-19T15:39:52;2.80;;;1.60;;
61911;SDS011;49973;52.084;5.412;2023-02-19T15:42:23;2.20;;;1.83;;
61911;SDS011;49973;52.084;5.412;2023-02-19T15:44:55;9.43;;;4.57;;
61911;SDS011;49973;52.084;5.412;2023-02-19T15:47:31;4.70;;;2.87;;
61911;SDS011;49973;52.084;5.412;2023-02-19T15:50:03;9.97;;;4.03;;